createdAt,value
2019-04-21T00:01:59.658Z,15.20
2019-04-21T00:04:43.440Z,14.37
2019-04-21T00:07:22.491Z,14.13
2019-04-21T00:09:54.915Z,18.20
2019-04-21T00:12:37.524Z,15.73
2019-04-21T00:14:46.063Z,16.03
2019-04-21T00:17:12.417Z,16.93
2019-04-21T00:19:42.551Z,14.10
2019-04-21T00:22:23.523Z,15.30
2019-04-21T00:24:56.837Z,15.87
2019-04-21T00:27:28.097Z,14.40
2019-04-21T00:30:09.076Z,15.47
2019-04-21T00:32:29.240Z,16.40
2019-04-21T00:34:56.271Z,16.33
2019-04-21T00:37:30.250Z,15.10
2019-04-21T00:40:09.398Z,15.17
2019-04-21T00:42:40.288Z,16.70
2019-04-21T00:45:10.755Z,16.00
2019-04-21T00:47:46.260Z,15.00
2019-04-21T00:50:12.776Z,16.47
2019-04-21T00:53:00.461Z,15.47
2019-04-21T00:55:35.515Z,17.43
2019-04-21T00:58:06.590Z,18.03
2019-04-21T01:00:33.983Z,17.67
2019-04-21T01:03:04.206Z,16.03
2019-04-21T01:05:52.843Z,14.33
2019-04-21T01:08:08.462Z,17.10
2019-04-21T01:10:28.676Z,17.07
2019-04-21T01:13:14.383Z,16.17
2019-04-21T01:15:43.548Z,15.23
2019-04-21T01:18:12.930Z,15.93
2019-04-21T01:20:20.685Z,15.83
2019-04-21T01:22:49.975Z,15.40
2019-04-21T01:25:29.333Z,12.70
2019-04-21T01:28:06.353Z,14.20
2019-04-21T01:30:40.983Z,15.40
2019-04-21T01:33:17.460Z,16.67
2019-04-21T01:35:44.131Z,14.70
2019-04-21T01:38:27.306Z,13.77
2019-04-21T01:40:51.478Z,14.70
2019-04-21T01:43:13.654Z,14.73
2019-04-21T01:45:49.410Z,15.10
2019-04-21T01:48:14.872Z,15.43
2019-04-21T01:50:48.302Z,14.67
2019-04-21T01:53:31.084Z,15.43
2019-04-21T01:56:04.828Z,14.77
2019-04-21T01:58:33.203Z,17.77
2019-04-21T02:01:10.158Z,17.57
2019-04-21T02:06:18.540Z,16.97
2019-04-21T02:08:44.850Z,16.73
2019-04-21T02:11:20.309Z,16.70
2019-04-21T02:13:58.896Z,15.37
2019-04-21T02:16:18.553Z,15.43
2019-04-21T02:18:50.988Z,15.17
2019-04-21T02:21:17.979Z,17.37
2019-04-21T02:23:58.744Z,15.70
2019-04-21T02:26:28.451Z,17.40
2019-04-21T02:29:03.183Z,16.10
2019-04-21T02:31:39.572Z,15.43
2019-04-21T02:34:04.515Z,17.73
2019-04-21T02:39:13.246Z,17.00
2019-04-21T02:41:47.413Z,14.57
2019-04-21T02:44:35.331Z,15.50
2019-04-21T02:49:22.838Z,14.40
2019-04-21T02:51:45.809Z,14.40
2019-04-21T02:54:41.075Z,16.27
2019-04-21T02:56:57.336Z,14.77
2019-04-21T03:01:56.868Z,16.27
2019-04-21T03:04:36.215Z,14.63
2019-04-21T03:07:11.256Z,14.17
2019-04-21T03:12:11.229Z,15.70
2019-04-21T03:14:50.309Z,14.30
2019-04-21T03:17:14.228Z,14.10
2019-04-21T03:22:20.777Z,14.27
2019-04-21T03:27:37.706Z,15.10
2019-04-21T03:35:25.667Z,12.07
2019-04-21T03:37:25.507Z,14.03
2019-04-21T03:39:50.687Z,13.40
2019-04-21T03:50:08.745Z,12.37
2019-04-21T03:52:29.980Z,13.30
2019-04-21T04:06:03.941Z,20.17
2019-04-21T04:08:51.626Z,19.43
2019-04-21T04:11:24.757Z,17.07
2019-04-21T04:14:03.474Z,15.77
2019-04-21T04:16:20.168Z,14.43
2019-04-21T04:19:01.157Z,14.67
2019-04-21T04:21:28.262Z,16.10
2019-04-21T04:26:22.131Z,15.57
2019-04-21T04:29:01.242Z,14.63
2019-04-21T04:31:30.368Z,15.90
2019-04-21T04:34:04.486Z,14.40
2019-04-21T04:39:26.088Z,15.83
2019-04-21T04:49:39.031Z,22.03
2019-04-21T04:52:13.627Z,22.40
2019-04-21T04:54:43.526Z,23.33
2019-04-21T04:57:08.507Z,20.23
2019-04-21T05:02:14.951Z,18.60
2019-04-21T05:04:50.361Z,15.53
2019-04-21T05:09:41.220Z,15.97
2019-04-21T05:12:01.602Z,14.83
2019-04-21T05:14:39.017Z,15.83
2019-04-21T05:17:15.723Z,16.13
2019-04-21T05:19:41.918Z,15.13
2019-04-21T05:22:20.277Z,15.90
2019-04-21T05:24:33.305Z,15.63
2019-04-21T05:26:59.456Z,15.97
2019-04-21T05:29:51.233Z,15.83
2019-04-21T05:32:17.102Z,16.40
2019-04-21T05:34:50.886Z,15.53
2019-04-21T05:37:35.175Z,16.07
2019-04-21T05:40:00.657Z,15.10
2019-04-21T05:42:35.391Z,15.50
2019-04-21T05:47:52.087Z,14.03
2019-04-21T05:50:16.772Z,14.93
2019-04-21T05:52:52.015Z,13.87
2019-04-21T05:55:33.450Z,13.87
2019-04-21T05:58:01.285Z,12.93
2019-04-21T06:00:56.044Z,13.13
2019-04-21T06:03:03.717Z,13.30
2019-04-21T06:08:09.946Z,13.90
2019-04-21T06:10:41.887Z,13.27
2019-04-21T06:13:13.409Z,14.13
2019-04-21T06:15:47.184Z,13.47
2019-04-21T06:18:13.526Z,12.00
2019-04-21T06:20:50.547Z,12.30
2019-04-21T06:23:20.396Z,12.77
2019-04-21T06:28:20.689Z,11.93
2019-04-21T06:30:59.415Z,11.37
2019-04-21T06:33:20.245Z,11.73
2019-04-21T06:38:54.260Z,10.43
2019-04-21T06:41:21.467Z,10.27
2019-04-21T06:46:20.024Z,10.77
2019-04-21T06:48:49.822Z,10.63
2019-04-21T06:51:23.915Z,10.33
2019-04-21T06:54:11.424Z,10.20
2019-04-21T06:56:24.134Z,10.70
2019-04-21T06:58:51.915Z,10.37
2019-04-21T07:01:22.996Z,10.07
2019-04-21T07:04:03.644Z,9.93
2019-04-21T07:06:33.785Z,9.60
2019-04-21T07:09:10.135Z,10.27
2019-04-21T07:11:27.019Z,9.93
2019-04-21T07:14:19.535Z,9.27
2019-04-21T07:16:34.204Z,10.60
2019-04-21T07:19:12.430Z,9.83
2019-04-21T07:21:33.857Z,10.67
2019-04-21T07:24:05.775Z,10.63
2019-04-21T07:26:36.832Z,10.23
2019-04-21T07:29:07.946Z,9.27
2019-04-21T07:31:52.135Z,9.57
2019-04-21T07:34:21.326Z,10.10
2019-04-21T07:36:45.063Z,9.87
2019-04-21T07:39:08.737Z,9.97
2019-04-21T07:41:39.770Z,9.37
2019-04-21T07:44:04.088Z,9.57
2019-04-21T07:46:37.221Z,9.50
2019-04-21T07:49:12.701Z,9.50
2019-04-21T07:52:01.413Z,9.07
2019-04-21T07:54:33.595Z,8.93
2019-04-21T07:56:39.862Z,9.77
2019-04-21T07:59:40.879Z,9.80
2019-04-21T08:01:58.534Z,9.13
2019-04-21T08:04:42.346Z,10.27
2019-04-21T08:06:55.443Z,10.50
2019-04-21T08:09:37.197Z,9.30
2019-04-21T08:11:58.401Z,9.70
2019-04-21T08:14:55.643Z,9.30
2019-04-21T08:17:04.709Z,9.40
2019-04-21T08:19:32.197Z,8.80
2019-04-21T08:22:13.953Z,9.00
2019-04-21T08:24:40.662Z,9.47
2019-04-21T08:27:13.824Z,8.80
2019-04-21T08:29:44.792Z,8.13
2019-04-21T08:34:42.955Z,8.43
2019-04-21T08:37:12.199Z,8.50
2019-04-21T08:39:50.792Z,9.03
2019-04-21T08:42:21.967Z,8.70
2019-04-21T08:44:49.357Z,7.67
2019-04-21T08:47:19.106Z,8.23
2019-04-21T08:49:47.964Z,8.13
2019-04-21T08:52:34.730Z,7.87
2019-04-21T08:54:57.032Z,8.10
2019-04-21T08:57:35.705Z,7.17
2019-04-21T09:00:05.095Z,8.03
2019-04-21T09:05:08.417Z,7.90
2019-04-21T09:07:39.398Z,7.50
2019-04-21T09:10:09.508Z,7.43
2019-04-21T09:12:42.824Z,7.70
2019-04-21T09:15:14.382Z,7.60
2019-04-21T09:17:36.816Z,7.83
2019-04-21T09:20:22.622Z,7.53
2019-04-21T09:22:41.528Z,7.40
2019-04-21T09:25:21.105Z,6.43
2019-04-21T09:27:48.936Z,7.37
2019-04-21T09:30:03.463Z,7.73
2019-04-21T09:32:33.045Z,7.10
2019-04-21T09:35:06.232Z,7.57
2019-04-21T09:37:44.453Z,8.30
2019-04-21T09:40:06.806Z,7.80
2019-04-21T09:42:44.348Z,8.60
2019-04-21T09:45:11.599Z,9.07
2019-04-21T09:47:46.840Z,8.03
2019-04-21T09:50:11.656Z,7.30
2019-04-21T09:52:48.888Z,8.70
2019-04-21T09:55:17.878Z,8.53
2019-04-21T09:57:50.062Z,8.23
2019-04-21T10:00:21.074Z,6.80
2019-04-21T10:02:56.808Z,6.30
2019-04-21T10:05:17.535Z,6.70
2019-04-21T10:07:46.905Z,6.60
2019-04-21T10:10:17.243Z,7.97
2019-04-21T10:12:47.768Z,6.77
2019-04-21T10:15:18.764Z,6.90
2019-04-21T10:17:50.285Z,6.60
2019-04-21T10:20:20.160Z,6.57
2019-04-21T10:22:50.864Z,6.53
2019-04-21T10:25:20.930Z,7.10
2019-04-21T10:27:50.629Z,6.50
2019-04-21T10:30:20.462Z,6.90
2019-04-21T10:32:50.273Z,7.10
2019-04-21T10:35:21.780Z,6.80
2019-04-21T10:38:03.350Z,6.57
2019-04-21T10:40:21.745Z,6.43
2019-04-21T10:42:52.254Z,6.60
2019-04-21T10:45:22.993Z,6.53
2019-04-21T10:47:52.838Z,7.03
2019-04-21T10:50:22.654Z,6.33
2019-04-21T10:53:00.829Z,6.50
2019-04-21T10:55:49.220Z,6.70
2019-04-21T10:58:22.426Z,6.57
2019-04-21T11:01:02.281Z,6.90
2019-04-21T11:03:33.402Z,7.03
2019-04-21T11:06:04.518Z,6.47
2019-04-21T11:08:37.933Z,6.77
2019-04-21T11:11:05.862Z,6.70
2019-04-21T11:13:36.777Z,6.03
2019-04-21T11:16:06.480Z,5.53
2019-04-21T11:18:36.012Z,5.97
2019-04-21T11:21:06.911Z,6.93
2019-04-21T11:23:37.512Z,7.17
2019-04-21T11:26:16.008Z,7.40
2019-04-21T11:28:52.694Z,6.93
2019-04-21T11:31:29.260Z,6.80
2019-04-21T11:34:07.340Z,6.30
2019-04-21T11:36:43.793Z,7.03
2019-04-21T11:39:35.549Z,6.70
2019-04-21T11:41:55.829Z,6.67
2019-04-21T11:44:31.096Z,7.00
2019-04-21T11:47:07.430Z,6.37
2019-04-21T11:49:43.161Z,7.67
2019-04-21T11:52:18.868Z,9.00
2019-04-21T11:54:54.978Z,7.50
2019-04-21T11:57:38.348Z,6.70
2019-04-21T12:00:17.668Z,6.97
2019-04-21T12:02:53.370Z,6.37
2019-04-21T12:05:27.947Z,7.73
2019-04-21T12:08:04.034Z,9.90
2019-04-21T12:10:39.723Z,7.00
2019-04-21T12:13:14.548Z,8.53
2019-04-21T12:15:49.316Z,8.07
2019-04-21T12:18:26.664Z,8.40
2019-04-21T12:21:03.581Z,6.73
2019-04-21T12:23:38.781Z,6.73
2019-04-21T12:26:14.047Z,7.37
2019-04-21T12:28:48.497Z,7.37
2019-04-21T12:31:45.414Z,6.70
2019-04-21T12:34:17.950Z,6.80
2019-04-21T12:36:54.978Z,6.80
2019-04-21T12:39:34.741Z,6.90
2019-04-21T12:42:04.763Z,7.37
2019-04-21T12:44:34.240Z,7.30
2019-04-21T12:47:03.730Z,6.80
2019-04-21T12:49:33.856Z,7.60
2019-04-21T12:52:03.792Z,7.27
2019-04-21T12:54:33.452Z,7.73
2019-04-21T12:57:03.442Z,6.70
2019-04-21T12:59:34.546Z,7.07
2019-04-21T13:02:04.069Z,6.23
2019-04-21T13:04:33.644Z,6.93
2019-04-21T13:07:03.702Z,7.17
2019-04-21T13:09:34.303Z,6.90
2019-04-21T13:12:04.906Z,6.13
2019-04-21T13:14:35.826Z,7.20
2019-04-21T13:17:05.675Z,6.90
2019-04-21T13:19:35.688Z,6.80
2019-04-21T13:22:05.913Z,7.27
2019-04-21T13:24:35.946Z,7.27
2019-04-21T13:27:07.091Z,7.00
2019-04-21T13:29:36.837Z,6.30
2019-04-21T13:32:07.490Z,6.73
2019-04-21T13:34:37.933Z,7.33
2019-04-21T13:37:07.723Z,6.90
2019-04-21T13:40:14.445Z,7.07
2019-04-21T13:42:34.199Z,6.60
2019-04-21T13:44:59.243Z,6.97
2019-04-21T13:47:28.378Z,6.60
2019-04-21T13:49:59.871Z,7.10
2019-04-21T13:52:29.021Z,6.97
2019-04-21T13:54:58.510Z,6.47
2019-04-21T13:57:28.481Z,6.20
2019-04-21T13:59:59.263Z,6.60
2019-04-21T14:02:29.033Z,6.57
2019-04-21T14:04:59.176Z,5.87
2019-04-21T14:07:28.569Z,6.63
2019-04-21T14:10:04.342Z,6.40
2019-04-21T14:12:29.667Z,7.67
2019-04-21T14:15:00.073Z,6.53
2019-04-21T14:17:30.854Z,7.10
2019-04-21T14:20:01.522Z,6.13
2019-04-21T14:22:31.781Z,6.67
2019-04-21T14:25:01.819Z,5.97
2019-04-21T14:27:32.211Z,6.30
2019-04-21T14:30:02.871Z,6.10
2019-04-21T14:32:33.751Z,6.07
2019-04-21T14:35:04.880Z,6.40
2019-04-21T14:37:34.871Z,6.03
2019-04-21T14:40:08.981Z,6.70
2019-04-21T14:42:38.152Z,6.20
2019-04-21T14:45:09.918Z,6.27
2019-04-21T14:47:52.940Z,5.53
2019-04-21T14:50:28.437Z,6.37
2019-04-21T14:53:11.902Z,6.20
2019-04-21T14:55:43.477Z,5.90
2019-04-21T14:58:13.272Z,6.20
2019-04-21T15:00:55.730Z,6.13
2019-04-21T15:03:25.834Z,6.10
2019-04-21T15:05:55.746Z,6.43
2019-04-21T15:08:25.235Z,6.57
2019-04-21T15:10:54.927Z,6.27
2019-04-21T15:13:25.845Z,6.03
2019-04-21T15:15:56.285Z,6.10
2019-04-21T15:18:26.433Z,6.57
2019-04-21T15:20:57.252Z,5.83
2019-04-21T15:23:28.683Z,6.50
2019-04-21T15:25:58.083Z,6.27
2019-04-21T15:28:30.680Z,6.17
2019-04-21T15:30:58.655Z,5.80
2019-04-21T15:33:28.723Z,6.10
2019-04-21T15:35:58.232Z,5.57
2019-04-21T15:38:27.730Z,5.80
2019-04-21T15:41:01.258Z,5.97
2019-04-21T15:43:28.587Z,5.70
2019-04-21T15:45:58.265Z,6.73
2019-04-21T15:48:28.790Z,5.90
2019-04-21T15:50:59.132Z,5.80
2019-04-21T15:53:31.968Z,5.70
2019-04-21T15:56:04.495Z,5.97
2019-04-21T15:58:36.789Z,5.63
2019-04-21T16:01:24.857Z,6.23
2019-04-21T16:03:58.300Z,5.93
2019-04-21T16:06:25.696Z,6.20
2019-04-21T16:08:57.447Z,6.30
2019-04-21T16:11:26.206Z,6.37
2019-04-21T16:13:55.596Z,6.03
2019-04-21T16:16:28.211Z,6.03
2019-04-21T16:18:56.311Z,5.50
2019-04-21T16:21:26.314Z,5.63
2019-04-21T16:23:56.392Z,5.60
2019-04-21T16:26:26.782Z,5.60
2019-04-21T16:28:57.411Z,5.90
2019-04-21T16:31:27.892Z,6.07
2019-04-21T16:33:58.815Z,4.90
2019-04-21T16:36:29.268Z,6.30
2019-04-21T16:38:59.678Z,5.47
2019-04-21T16:41:29.172Z,6.67
2019-04-21T16:43:58.876Z,5.47
2019-04-21T16:46:29.514Z,6.50
2019-04-21T16:49:00.009Z,5.87
2019-04-21T16:51:29.465Z,6.30
2019-04-21T16:54:01.793Z,5.57
2019-04-21T16:56:33.613Z,6.20
2019-04-21T16:59:06.325Z,5.50
2019-04-21T17:01:36.435Z,6.63
2019-04-21T17:04:06.616Z,6.73
2019-04-21T17:06:38.283Z,6.77
2019-04-21T17:09:08.618Z,6.37
2019-04-21T17:11:41.576Z,7.40
2019-04-21T17:14:27.193Z,7.50
2019-04-21T17:17:02.880Z,4.73
2019-04-21T17:19:20.219Z,5.47
2019-04-21T17:21:43.695Z,4.83
2019-04-21T17:24:14.619Z,5.27
2019-04-21T17:26:46.054Z,7.10
2019-04-21T17:29:16.823Z,14.43
2019-04-21T17:31:47.614Z,16.80
2019-04-21T17:34:21.810Z,12.70
2019-04-21T17:36:48.803Z,11.47
2019-04-21T17:39:18.654Z,11.90
2019-04-21T17:42:04.107Z,16.30
2019-04-21T17:44:19.419Z,13.60
2019-04-21T17:46:57.815Z,12.63
2019-04-21T17:49:21.200Z,9.57
2019-04-21T17:52:05.648Z,10.00
2019-04-21T17:54:43.605Z,9.60
2019-04-21T17:57:29.221Z,9.47
2019-04-21T18:00:09.742Z,10.70
2019-04-21T18:02:38.138Z,10.63
2019-04-21T18:05:09.202Z,10.37
2019-04-21T18:07:35.360Z,10.03
2019-04-21T18:10:07.637Z,11.27
2019-04-21T18:12:34.830Z,11.03
2019-04-21T18:15:00.267Z,13.30
2019-04-21T18:17:22.676Z,15.07
2019-04-21T18:19:54.918Z,17.67
2019-04-21T18:22:44.308Z,18.70
2019-04-21T18:25:33.256Z,19.47
2019-04-21T18:27:50.705Z,22.03
2019-04-21T18:30:44.963Z,22.07
2019-04-21T18:33:24.593Z,21.80
2019-04-21T18:36:06.229Z,21.37
2019-04-21T18:39:00.090Z,22.47
2019-04-21T18:41:15.345Z,20.33
2019-04-21T18:44:19.089Z,20.60
2019-04-21T18:46:46.072Z,19.47
2019-04-21T18:49:00.750Z,19.02
2019-04-21T18:51:54.773Z,20.63
2019-04-21T18:54:36.005Z,18.70
2019-04-21T18:56:57.603Z,21.17
2019-04-21T18:59:27.753Z,21.47
2019-04-21T19:01:59.938Z,22.60
2019-04-21T19:04:28.764Z,23.23
2019-04-21T19:07:10.181Z,24.47
2019-04-21T19:10:07.236Z,26.93
2019-04-21T19:12:11.714Z,28.10
2019-04-21T19:14:46.034Z,27.60
2019-04-21T19:18:05.498Z,30.67
2019-04-21T19:19:54.643Z,30.57
2019-04-21T19:22:21.787Z,30.10
2019-04-21T19:24:55.617Z,32.67
2019-04-21T19:27:36.446Z,33.80
2019-04-21T19:30:05.460Z,33.07
2019-04-21T19:32:25.883Z,30.67
2019-04-21T19:34:43.205Z,31.43
2019-04-21T19:37:16.494Z,30.93
2019-04-21T19:39:53.883Z,28.47
2019-04-21T19:42:25.489Z,30.00
2019-04-21T19:44:59.281Z,29.30
2019-04-21T19:47:41.831Z,26.97
2019-04-21T19:50:06.106Z,26.77
2019-04-21T19:52:30.986Z,25.20
2019-04-21T19:54:52.262Z,24.30
2019-04-21T19:57:22.932Z,28.23
2019-04-21T19:59:55.728Z,27.50
2019-04-21T20:02:24.706Z,30.93
2019-04-21T20:05:02.162Z,33.33
2019-04-21T20:07:45.118Z,33.00
2019-04-21T20:10:20.255Z,29.63
2019-04-21T20:12:45.538Z,27.00
2019-04-21T20:15:26.193Z,24.43
2019-04-21T20:17:49.524Z,24.07
2019-04-21T20:20:03.772Z,22.90
2019-04-21T20:22:38.414Z,21.17
2019-04-21T20:25:12.029Z,18.93
2019-04-21T20:27:49.471Z,21.70
2019-04-21T20:30:26.227Z,20.90
2019-04-21T20:33:15.961Z,20.00
2019-04-21T20:35:38.452Z,21.97
2019-04-21T20:37:57.803Z,16.73
2019-04-21T20:40:25.100Z,19.20
2019-04-21T20:43:08.610Z,18.33
2019-04-21T20:45:40.221Z,19.63
2019-04-21T20:47:54.137Z,20.63
2019-04-21T20:50:33.807Z,22.27
2019-04-21T20:53:10.988Z,21.63
2019-04-21T20:55:37.963Z,24.97
2019-04-21T20:58:09.169Z,22.70
2019-04-21T21:00:55.819Z,24.73
2019-04-21T21:03:23.426Z,24.80
2019-04-21T21:05:42.441Z,25.53
2019-04-21T21:08:26.130Z,24.50
2019-04-21T21:10:45.785Z,24.53
2019-04-21T21:13:26.616Z,23.30
2019-04-21T21:16:06.121Z,22.27
2019-04-21T21:18:52.298Z,21.37
2019-04-21T21:21:03.339Z,18.33
2019-04-21T21:23:24.748Z,18.27
2019-04-21T21:25:58.989Z,17.43
2019-04-21T21:28:29.018Z,21.13
2019-04-21T21:31:02.829Z,17.30
2019-04-21T21:33:25.743Z,17.63
2019-04-21T21:36:06.483Z,16.50
2019-04-21T21:38:37.551Z,17.70
2019-04-21T21:40:57.268Z,19.67
2019-04-21T21:43:22.795Z,20.23
2019-04-21T21:45:55.312Z,19.20
2019-04-21T21:48:38.293Z,18.00
2019-04-21T21:51:02.252Z,15.87
2019-04-21T21:53:26.817Z,17.17
2019-04-21T21:55:54.497Z,16.33
2019-04-21T21:58:27.485Z,16.13
2019-04-21T22:01:00.576Z,16.40
2019-04-21T22:03:40.853Z,17.13
2019-04-21T22:06:13.163Z,14.43
2019-04-21T22:08:38.588Z,19.20
2019-04-21T22:11:08.875Z,18.07
2019-04-21T22:13:47.602Z,19.17
2019-04-21T22:16:13.972Z,20.33
2019-04-21T22:19:04.582Z,19.90
2019-04-21T22:21:35.164Z,19.77
2019-04-21T22:23:54.849Z,18.83
2019-04-21T22:26:15.474Z,16.33
2019-04-21T22:28:45.633Z,15.77
2019-04-21T22:31:21.165Z,14.67
2019-04-21T22:33:50.222Z,13.40
2019-04-21T22:36:31.252Z,13.23
2019-04-21T22:39:09.343Z,12.83
2019-04-21T22:41:30.341Z,10.97
2019-04-21T22:43:54.220Z,11.67
2019-04-21T22:46:24.396Z,10.20
2019-04-21T22:48:59.769Z,9.10
2019-04-21T22:51:32.371Z,8.37
2019-04-21T22:53:59.202Z,9.13
2019-04-21T22:56:31.980Z,9.40
2019-04-21T22:58:59.009Z,8.87
2019-04-21T23:01:35.030Z,9.43
2019-04-21T23:04:02.814Z,8.10
2019-04-21T23:06:33.805Z,7.83
2019-04-21T23:09:01.889Z,7.67
2019-04-21T23:11:37.495Z,7.60
2019-04-21T23:14:06.572Z,8.17
2019-04-21T23:16:37.736Z,7.20
2019-04-21T23:19:21.192Z,7.73
2019-04-21T23:21:55.392Z,8.10
2019-04-21T23:24:31.659Z,7.30
2019-04-21T23:26:51.677Z,7.07
2019-04-21T23:29:38.969Z,7.83
2019-04-21T23:32:01.916Z,6.73
2019-04-21T23:34:19.597Z,6.07
2019-04-21T23:36:54.474Z,7.20
2019-04-21T23:39:22.700Z,7.30
2019-04-21T23:41:47.925Z,6.23
2019-04-21T23:44:19.016Z,7.97
2019-04-21T23:46:51.068Z,7.50
2019-04-21T23:49:29.629Z,7.83
2019-04-21T23:51:58.373Z,7.50
2019-04-21T23:54:20.221Z,8.57
2019-04-21T23:56:49.700Z,9.20
2019-04-21T23:59:20.464Z,9.93
